createdAt,value
2018-04-19T00:00:39.837Z,12.33
2018-04-19T00:03:07.478Z,11.60
2018-04-19T00:05:35.815Z,11.93
2018-04-19T00:08:03.412Z,12.03
2018-04-19T00:10:31.842Z,11.40
2018-04-19T00:12:59.436Z,12.00
2018-04-19T00:15:27.103Z,12.17
2018-04-19T00:17:54.809Z,11.80
2018-04-19T00:20:22.382Z,12.33
2018-04-19T00:22:50.159Z,12.27
2018-04-19T00:25:17.715Z,12.30
2018-04-19T00:27:45.369Z,12.13
2018-04-19T00:30:13.061Z,11.60
2018-04-19T00:32:41.428Z,12.17
2018-04-19T00:35:09.077Z,12.70
2018-04-19T00:37:36.674Z,13.80
2018-04-19T00:40:04.999Z,11.67
2018-04-19T00:42:32.601Z,11.80
2018-04-19T00:45:00.957Z,12.20
2018-04-19T00:47:28.609Z,12.57
2018-04-19T00:49:56.197Z,12.87
2018-04-19T00:52:36.549Z,12.50
2018-04-19T00:55:04.155Z,12.40
2018-04-19T00:57:31.753Z,11.90
2018-04-19T01:00:00.155Z,12.07
2018-04-19T01:02:28.544Z,12.90
2018-04-19T01:04:56.909Z,12.63
2018-04-19T01:07:25.233Z,11.97
2018-04-19T01:09:52.813Z,12.73
2018-04-19T01:12:20.373Z,12.80
2018-04-19T01:14:48.168Z,13.07
2018-04-19T01:17:16.493Z,13.67
2018-04-19T01:19:44.093Z,13.23
2018-04-19T01:22:11.651Z,14.40
2018-04-19T01:24:39.255Z,14.33
2018-04-19T01:27:06.854Z,14.93
2018-04-19T01:29:34.528Z,14.00
2018-04-19T01:32:02.245Z,14.00
2018-04-19T01:34:29.813Z,14.97
2018-04-19T01:36:57.421Z,14.40
2018-04-19T01:39:25.861Z,13.00
2018-04-19T01:41:53.520Z,13.37
2018-04-19T01:44:21.117Z,11.50
2018-04-19T01:46:49.441Z,12.20
2018-04-19T01:49:17.094Z,11.80
2018-04-19T01:51:44.682Z,12.30
2018-04-19T01:54:12.276Z,11.13
2018-04-19T01:56:40.673Z,13.20
2018-04-19T01:59:08.256Z,12.20
2018-04-19T02:01:35.822Z,12.60
2018-04-19T02:04:03.473Z,12.53
2018-04-19T02:06:31.040Z,12.87
2018-04-19T02:08:58.725Z,12.50
2018-04-19T02:11:26.297Z,13.40
2018-04-19T02:13:53.889Z,12.47
2018-04-19T02:16:21.449Z,13.37
2018-04-19T02:18:49.062Z,12.03
2018-04-19T02:21:16.722Z,12.27
2018-04-19T02:23:45.825Z,12.03
2018-04-19T02:26:13.389Z,11.47
2018-04-19T02:28:40.952Z,12.93
2018-04-19T02:31:09.325Z,12.27
2018-04-19T02:33:36.892Z,12.60
2018-04-19T02:36:05.250Z,13.23
2018-04-19T02:38:33.570Z,13.20
2018-04-19T02:41:01.294Z,13.77
2018-04-19T02:43:28.855Z,12.87
2018-04-19T02:45:57.294Z,13.03
2018-04-19T02:48:24.850Z,12.90
2018-04-19T02:50:52.466Z,12.10
2018-04-19T02:53:20.800Z,12.30
2018-04-19T02:55:48.593Z,13.67
2018-04-19T02:58:16.481Z,13.67
2018-04-19T03:00:44.997Z,14.77
2018-04-19T03:03:12.567Z,12.77
2018-04-19T03:05:40.215Z,14.30
2018-04-19T03:08:07.978Z,14.30
2018-04-19T03:10:35.550Z,13.97
2018-04-19T03:13:03.233Z,13.80
2018-04-19T03:15:30.800Z,14.53
2018-04-19T03:17:59.205Z,13.83
2018-04-19T03:20:26.786Z,13.67
2018-04-19T03:22:54.401Z,14.70
2018-04-19T03:25:22.712Z,14.17
2018-04-19T03:27:50.308Z,14.23
2018-04-19T03:30:17.866Z,12.67
2018-04-19T03:32:45.463Z,13.80
2018-04-19T03:35:13.820Z,14.30
2018-04-19T03:37:41.381Z,13.60
2018-04-19T03:40:09.056Z,14.60
2018-04-19T03:42:37.401Z,13.50
2018-04-19T03:45:04.993Z,12.87
2018-04-19T03:47:33.314Z,14.67
2018-04-19T03:50:01.071Z,13.13
2018-04-19T03:52:28.650Z,14.63
2018-04-19T03:54:56.233Z,16.30
2018-04-19T03:57:23.789Z,15.00
2018-04-19T03:59:51.502Z,14.53
2018-04-19T04:02:19.178Z,14.90
2018-04-19T04:04:46.769Z,14.60
2018-04-19T04:07:14.377Z,14.83
2018-04-19T04:09:42.126Z,15.03
2018-04-19T04:12:09.725Z,14.70
2018-04-19T04:14:37.286Z,14.70
2018-04-19T04:17:16.648Z,14.90
2018-04-19T04:19:56.070Z,14.37
2018-04-19T04:22:35.580Z,16.50
2018-04-19T04:25:03.346Z,15.77
2018-04-19T04:27:30.949Z,15.90
2018-04-19T04:29:58.515Z,14.47
2018-04-19T04:32:26.849Z,14.03
2018-04-19T04:34:54.440Z,14.17
2018-04-19T04:37:22.012Z,16.10
2018-04-19T04:39:50.369Z,16.00
2018-04-19T04:42:18.705Z,15.77
2018-04-19T04:44:46.288Z,16.30
2018-04-19T04:47:13.844Z,14.93
2018-04-19T04:49:41.489Z,14.90
2018-04-19T04:52:09.078Z,15.50
2018-04-19T04:54:36.858Z,16.17
2018-04-19T04:57:04.516Z,17.03
2018-04-19T04:59:32.080Z,16.67
2018-04-19T05:02:00.439Z,15.90
2018-04-19T05:04:28.009Z,15.90
2018-04-19T05:06:55.781Z,16.00
2018-04-19T05:09:24.144Z,16.70
2018-04-19T05:11:51.737Z,16.80
2018-04-19T05:14:19.336Z,16.33
2018-04-19T05:16:47.029Z,16.73
2018-04-19T05:19:14.592Z,17.50
2018-04-19T05:21:42.977Z,16.20
2018-04-19T05:24:11.352Z,16.20
2018-04-19T05:26:39.724Z,15.70
2018-04-19T05:29:08.072Z,17.40
2018-04-19T05:31:35.678Z,16.40
2018-04-19T05:34:04.049Z,16.70
2018-04-19T05:36:32.374Z,15.90
2018-04-19T05:39:00.113Z,16.63
2018-04-19T05:41:27.693Z,17.57
2018-04-19T05:43:55.398Z,17.07
2018-04-19T05:46:22.969Z,16.83
2018-04-19T05:48:51.327Z,16.53
2018-04-19T05:51:19.689Z,18.07
2018-04-19T05:53:47.257Z,17.50
2018-04-19T05:56:14.847Z,18.03
2018-04-19T05:58:42.416Z,17.87
2018-04-19T06:01:10.001Z,17.10
2018-04-19T06:03:37.570Z,20.20
2018-04-19T06:06:05.271Z,17.73
2018-04-19T06:08:33.674Z,18.10
2018-04-19T06:11:01.998Z,19.00
2018-04-19T06:13:29.642Z,17.87
2018-04-19T06:15:57.250Z,18.27
2018-04-19T06:18:25.589Z,18.87
2018-04-19T06:20:53.169Z,17.60
2018-04-19T06:23:20.776Z,18.60
2018-04-19T06:25:48.354Z,20.50
2018-04-19T06:28:15.961Z,20.40
2018-04-19T06:30:44.293Z,18.70
2018-04-19T06:33:11.982Z,17.83
2018-04-19T06:35:39.561Z,19.20
2018-04-19T06:38:08.015Z,21.37
2018-04-19T06:40:35.597Z,20.40
2018-04-19T06:43:04.028Z,19.20
2018-04-19T06:45:31.640Z,19.87
2018-04-19T06:47:59.277Z,20.97
2018-04-19T06:50:26.860Z,19.47
2018-04-19T06:52:54.466Z,19.07
2018-04-19T06:55:22.213Z,19.67
2018-04-19T06:57:49.817Z,18.70
2018-04-19T07:00:17.415Z,19.27
2018-04-19T07:02:45.000Z,15.83
2018-04-19T07:05:13.052Z,17.30
2018-04-19T07:07:40.825Z,14.03
2018-04-19T07:10:08.397Z,15.63
2018-04-19T07:12:36.000Z,16.37
2018-04-19T07:15:04.341Z,15.90
2018-04-19T07:17:32.076Z,16.00
2018-04-19T07:19:59.670Z,13.20
2018-04-19T07:22:27.437Z,13.50
2018-04-19T07:24:55.030Z,10.00
2018-04-19T07:27:23.498Z,11.23
2018-04-19T07:29:51.862Z,10.87
2018-04-19T07:32:20.261Z,10.53
2018-04-19T07:34:47.806Z,9.40
2018-04-19T07:37:16.157Z,9.60
2018-04-19T07:39:43.744Z,9.30
2018-04-19T07:42:12.084Z,9.43
2018-04-19T07:44:39.702Z,10.70
2018-04-19T07:47:07.270Z,10.27
2018-04-19T07:49:34.845Z,9.10
2018-04-19T07:52:02.426Z,9.80
2018-04-19T07:54:30.856Z,9.63
2018-04-19T07:56:58.566Z,9.13
2018-04-19T07:59:26.144Z,7.20
2018-04-19T08:01:53.905Z,7.30
2018-04-19T08:04:21.473Z,8.80
2018-04-19T08:06:49.053Z,8.33
2018-04-19T08:09:16.616Z,7.20
2018-04-19T08:11:44.287Z,7.47
2018-04-19T08:14:11.870Z,7.63
2018-04-19T08:16:39.561Z,7.30
2018-04-19T08:19:07.265Z,6.70
2018-04-19T08:21:34.933Z,6.90
2018-04-19T08:24:02.557Z,6.23
2018-04-19T08:26:30.965Z,6.40
2018-04-19T08:28:58.689Z,6.33
2018-04-19T08:31:26.256Z,6.50
2018-04-19T08:33:54.611Z,6.07
2018-04-19T08:36:22.173Z,6.23
2018-04-19T08:38:49.893Z,6.40
2018-04-19T08:41:17.453Z,5.60
2018-04-19T08:43:45.137Z,5.73
2018-04-19T08:46:12.782Z,5.87
2018-04-19T08:48:40.362Z,5.90
2018-04-19T08:51:07.921Z,5.93
2018-04-19T08:53:35.669Z,4.80
2018-04-19T08:56:03.365Z,5.73
2018-04-19T08:58:30.948Z,5.90
2018-04-19T09:00:59.301Z,5.50
2018-04-19T09:03:27.009Z,6.03
2018-04-19T09:05:54.622Z,6.57
2018-04-19T09:08:22.186Z,5.90
2018-04-19T09:10:50.558Z,6.00
2018-04-19T09:13:18.217Z,5.47
2018-04-19T09:15:45.945Z,5.50
2018-04-19T09:18:13.534Z,5.27
2018-04-19T09:20:41.160Z,4.80
2018-04-19T09:23:08.789Z,4.67
2018-04-19T09:25:36.381Z,4.33
2018-04-19T09:28:03.992Z,4.97
2018-04-19T09:30:32.367Z,5.07
2018-04-19T09:32:59.945Z,4.80
2018-04-19T09:35:27.635Z,4.80
2018-04-19T09:37:55.461Z,4.70
2018-04-19T09:40:23.826Z,5.00
2018-04-19T09:42:52.158Z,4.93
2018-04-19T09:45:19.900Z,4.80
2018-04-19T09:47:47.479Z,4.27
2018-04-19T09:50:15.214Z,4.03
2018-04-19T09:52:42.986Z,4.50
2018-04-19T09:55:10.571Z,4.57
2018-04-19T09:57:38.364Z,4.63
2018-04-19T10:00:05.923Z,5.50
2018-04-19T10:02:35.024Z,5.97
2018-04-19T10:05:03.552Z,5.10
2018-04-19T10:07:31.159Z,4.57
2018-04-19T10:09:59.525Z,4.43
2018-04-19T10:12:27.281Z,4.90
2018-04-19T10:14:54.884Z,5.20
2018-04-19T10:17:22.482Z,4.90
2018-04-19T10:19:50.045Z,5.07
2018-04-19T10:22:17.692Z,4.80
2018-04-19T10:24:45.260Z,4.70
2018-04-19T10:27:12.822Z,4.30
2018-04-19T10:29:40.433Z,3.97
2018-04-19T10:32:08.201Z,4.33
2018-04-19T10:34:35.785Z,4.77
2018-04-19T10:37:03.342Z,3.40
2018-04-19T10:39:31.003Z,4.73
2018-04-19T10:41:58.601Z,4.23
2018-04-19T10:44:26.233Z,4.47
2018-04-19T10:46:53.934Z,4.53
2018-04-19T10:49:22.282Z,3.57
2018-04-19T10:51:49.866Z,4.30
2018-04-19T10:54:18.227Z,4.43
2018-04-19T10:56:45.912Z,4.57
2018-04-19T10:59:14.461Z,4.63
2018-04-19T11:01:42.084Z,5.00
2018-04-19T11:04:09.662Z,4.43
2018-04-19T11:06:37.290Z,4.50
2018-04-19T11:09:05.494Z,4.77
2018-04-19T11:11:33.168Z,5.10
2018-04-19T11:14:00.769Z,4.60
2018-04-19T11:16:29.169Z,4.70
2018-04-19T11:18:56.907Z,5.77
2018-04-19T11:21:25.246Z,4.60
2018-04-19T11:23:52.841Z,5.97
2018-04-19T11:26:21.176Z,5.03
2018-04-19T11:28:48.790Z,3.20
2018-04-19T11:31:16.417Z,5.13
2018-04-19T11:33:44.905Z,6.00
2018-04-19T11:36:13.244Z,6.13
2018-04-19T11:38:40.901Z,5.20
2018-04-19T11:41:08.529Z,5.40
2018-04-19T11:43:36.837Z,4.10
2018-04-19T11:46:04.430Z,4.90
2018-04-19T11:48:32.775Z,5.17
2018-04-19T11:51:00.362Z,6.10
2018-04-19T11:53:28.016Z,6.27
2018-04-19T11:55:55.577Z,6.50
2018-04-19T11:58:24.689Z,5.90
2018-04-19T12:00:53.014Z,6.10
2018-04-19T12:03:20.713Z,6.90
2018-04-19T12:05:48.274Z,5.30
2018-04-19T12:08:16.685Z,6.17
2018-04-19T12:10:44.260Z,5.10
2018-04-19T12:13:11.861Z,6.70
2018-04-19T12:15:39.533Z,6.83
2018-04-19T12:18:07.957Z,6.77
2018-04-19T12:20:35.509Z,6.17
2018-04-19T12:23:03.246Z,7.20
2018-04-19T12:25:31.569Z,7.50
2018-04-19T12:27:59.133Z,8.07
2018-04-19T12:30:26.716Z,7.70
2018-04-19T12:32:54.317Z,9.37
2018-04-19T12:35:21.944Z,8.40
2018-04-19T12:37:49.576Z,7.27
2018-04-19T12:40:17.202Z,6.73
2018-04-19T12:42:44.827Z,8.13
2018-04-19T12:45:13.193Z,7.40
2018-04-19T12:47:40.764Z,6.60
2018-04-19T12:50:09.155Z,6.70
2018-04-19T12:52:37.630Z,6.93
2018-04-19T12:55:05.981Z,6.13
2018-04-19T12:57:33.702Z,7.90
2018-04-19T13:00:01.307Z,6.10
2018-04-19T13:02:28.959Z,8.80
2018-04-19T13:04:56.517Z,7.57
2018-04-19T13:07:24.253Z,8.10
2018-04-19T13:09:51.833Z,8.50
2018-04-19T13:12:19.441Z,7.60
2018-04-19T13:14:47.070Z,5.27
2018-04-19T13:17:14.646Z,7.77
2018-04-19T13:19:42.986Z,6.93
2018-04-19T13:22:10.581Z,8.33
2018-04-19T13:24:38.994Z,8.93
2018-04-19T13:27:06.705Z,7.30
2018-04-19T13:29:34.435Z,7.07
2018-04-19T13:32:02.028Z,9.07
2018-04-19T13:34:30.422Z,8.83
2018-04-19T13:36:58.748Z,8.90
2018-04-19T13:39:26.449Z,7.83
2018-04-19T13:41:54.785Z,6.63
2018-04-19T13:44:22.537Z,5.70
2018-04-19T13:46:50.090Z,7.70
2018-04-19T13:49:17.686Z,7.70
2018-04-19T13:51:45.299Z,6.80
2018-04-19T13:54:12.907Z,8.30
2018-04-19T13:56:40.459Z,6.60
2018-04-19T13:59:09.633Z,6.97
2018-04-19T14:01:37.328Z,6.60
2018-04-19T14:04:04.997Z,6.90
2018-04-19T14:06:33.361Z,7.47
2018-04-19T14:09:00.972Z,7.00
2018-04-19T14:11:28.901Z,6.97
2018-04-19T14:13:57.273Z,8.67
2018-04-19T14:16:25.804Z,6.40
2018-04-19T14:18:53.361Z,7.43
2018-04-19T14:21:20.978Z,6.37
2018-04-19T14:23:49.314Z,7.40
2018-04-19T14:26:16.901Z,6.90
2018-04-19T14:28:44.461Z,7.50
2018-04-19T14:31:12.883Z,7.97
2018-04-19T14:33:41.193Z,7.00
2018-04-19T14:36:08.966Z,6.00
2018-04-19T14:38:37.337Z,7.10
2018-04-19T14:41:04.925Z,7.00
2018-04-19T14:43:33.274Z,6.97
2018-04-19T14:46:00.863Z,6.60
2018-04-19T14:48:29.197Z,6.70
2018-04-19T14:50:56.756Z,6.07
2018-04-19T14:53:24.498Z,7.63
2018-04-19T14:55:52.093Z,6.90
2018-04-19T14:58:19.838Z,6.73
2018-04-19T15:00:47.442Z,7.30
2018-04-19T15:03:15.044Z,6.27
2018-04-19T15:05:42.626Z,7.13
2018-04-19T15:08:10.236Z,7.40
2018-04-19T15:10:37.885Z,5.80
2018-04-19T15:13:06.252Z,6.93
2018-04-19T15:15:34.589Z,7.07
2018-04-19T15:18:02.281Z,6.50
2018-04-19T15:20:30.629Z,6.30
2018-04-19T15:22:58.380Z,5.30
2018-04-19T15:25:25.982Z,7.73
2018-04-19T15:27:53.543Z,5.80
2018-04-19T15:30:22.018Z,6.60
2018-04-19T15:32:50.382Z,6.00
2018-04-19T15:35:18.015Z,6.60
2018-04-19T15:37:45.585Z,6.80
2018-04-19T15:40:13.281Z,5.70
2018-04-19T15:42:41.635Z,6.10
2018-04-19T15:45:09.301Z,6.20
2018-04-19T15:47:36.879Z,5.60
2018-04-19T15:50:05.272Z,5.90
2018-04-19T15:52:32.825Z,6.03
2018-04-19T15:55:01.338Z,5.73
2018-04-19T15:57:29.625Z,5.07
2018-04-19T15:59:57.206Z,6.00
2018-04-19T16:02:24.863Z,5.13
2018-04-19T16:04:52.575Z,5.53
2018-04-19T16:07:20.238Z,5.10
2018-04-19T16:09:47.800Z,5.50
2018-04-19T16:12:15.496Z,4.97
2018-04-19T16:14:43.149Z,5.73
2018-04-19T16:17:10.774Z,5.03
2018-04-19T16:19:38.325Z,4.90
2018-04-19T16:22:05.921Z,5.17
2018-04-19T16:24:33.474Z,4.60
2018-04-19T16:27:01.094Z,3.83
2018-04-19T16:29:28.669Z,5.10
2018-04-19T16:31:56.231Z,4.50
2018-04-19T16:34:23.912Z,4.87
2018-04-19T16:36:51.504Z,4.10
2018-04-19T16:39:19.065Z,4.47
2018-04-19T16:41:46.654Z,4.43
2018-04-19T16:44:14.236Z,4.60
2018-04-19T16:46:41.817Z,4.13
2018-04-19T16:49:09.421Z,4.93
2018-04-19T16:51:37.891Z,4.73
2018-04-19T16:54:06.244Z,4.90
2018-04-19T16:56:33.859Z,4.40
2018-04-19T16:59:01.429Z,4.17
2018-04-19T17:01:29.106Z,5.03
2018-04-19T17:03:56.802Z,4.13
2018-04-19T17:06:25.153Z,3.87
2018-04-19T17:08:52.722Z,3.53
2018-04-19T17:11:20.313Z,4.30
2018-04-19T17:13:48.681Z,4.20
2018-04-19T17:16:17.072Z,4.37
2018-04-19T17:18:44.855Z,4.20
2018-04-19T17:21:12.464Z,3.63
2018-04-19T17:23:40.112Z,4.47
2018-04-19T17:26:07.720Z,4.33
2018-04-19T17:28:35.303Z,4.10
2018-04-19T17:31:02.948Z,4.03
2018-04-19T17:33:30.513Z,4.37
2018-04-19T17:35:58.179Z,5.13
2018-04-19T17:38:25.762Z,5.03
2018-04-19T17:40:53.356Z,4.50
2018-04-19T17:43:21.695Z,4.60
2018-04-19T17:45:49.308Z,4.53
2018-04-19T17:48:16.873Z,4.30
2018-04-19T17:50:44.473Z,4.40
2018-04-19T17:53:12.101Z,4.90
2018-04-19T17:55:39.766Z,4.77
2018-04-19T17:58:07.349Z,5.50
2018-04-19T18:00:35.050Z,4.77
2018-04-19T18:03:03.422Z,5.10
2018-04-19T18:05:31.749Z,4.70
2018-04-19T18:07:59.497Z,5.00
2018-04-19T18:10:27.074Z,4.73
2018-04-19T18:12:54.718Z,4.43
2018-04-19T18:15:22.313Z,5.23
2018-04-19T18:17:49.909Z,4.83
2018-04-19T18:20:18.303Z,4.83
2018-04-19T18:22:45.928Z,5.70
2018-04-19T18:25:14.301Z,5.30
2018-04-19T18:27:41.903Z,4.60
2018-04-19T18:30:09.518Z,5.77
2018-04-19T18:32:37.081Z,5.80
2018-04-19T18:35:04.673Z,5.20
2018-04-19T18:37:32.411Z,5.17
2018-04-19T18:40:00.774Z,5.40
2018-04-19T18:42:28.333Z,5.70
2018-04-19T18:44:57.525Z,6.07
2018-04-19T18:47:25.109Z,6.30
2018-04-19T18:49:53.638Z,5.90
2018-04-19T18:52:21.389Z,6.50
2018-04-19T18:54:49.105Z,6.40
2018-04-19T18:57:17.505Z,6.20
2018-04-19T18:59:45.182Z,7.00
2018-04-19T19:02:12.785Z,5.70
2018-04-19T19:04:40.431Z,7.07
2018-04-19T19:07:08.056Z,6.13
2018-04-19T19:09:35.708Z,6.40
2018-04-19T19:12:03.311Z,5.83
2018-04-19T19:14:33.715Z,6.33
2018-04-19T19:17:01.349Z,6.40
2018-04-19T19:22:31.035Z,6.27
2018-04-19T19:24:58.625Z,5.63
2018-04-19T19:27:26.994Z,5.47
2018-04-19T19:29:55.378Z,6.33
2018-04-19T19:32:23.726Z,5.70
2018-04-19T19:34:51.295Z,6.47
2018-04-19T19:37:19.646Z,5.50
2018-04-19T19:39:47.266Z,6.03
2018-04-19T19:42:14.885Z,6.67
2018-04-19T19:44:42.451Z,6.50
2018-04-19T19:47:10.042Z,5.60
2018-04-19T19:49:37.665Z,5.43
2018-04-19T19:52:05.253Z,5.20
2018-04-19T19:54:33.098Z,5.30
2018-04-19T19:57:01.461Z,6.53
2018-04-19T19:59:29.082Z,6.17
2018-04-19T20:01:56.657Z,5.37
2018-04-19T20:04:24.379Z,5.73
2018-04-19T20:06:51.995Z,4.87
2018-04-19T20:09:19.617Z,5.73
2018-04-19T20:11:47.225Z,5.70
2018-04-19T20:14:14.807Z,5.20
2018-04-19T20:16:43.173Z,5.80
2018-04-19T20:19:11.565Z,6.10
2018-04-19T20:21:39.185Z,7.03
2018-04-19T20:24:06.855Z,7.53
2018-04-19T20:26:34.582Z,7.03
2018-04-19T20:29:02.168Z,6.97
2018-04-19T20:31:30.549Z,7.93
2018-04-19T20:33:58.322Z,7.43
2018-04-19T20:36:26.669Z,7.10
2018-04-19T20:38:54.403Z,7.33
2018-04-19T20:41:22.040Z,6.47
2018-04-19T20:43:50.362Z,5.67
2018-04-19T20:46:17.941Z,6.50
2018-04-19T20:48:45.724Z,5.80
2018-04-19T20:51:14.182Z,6.33
2018-04-19T20:53:41.870Z,6.47
2018-04-19T20:56:10.298Z,5.90
2018-04-19T20:58:37.895Z,6.57
2018-04-19T21:01:05.463Z,5.80
2018-04-19T21:03:33.834Z,6.00
2018-04-19T21:06:02.167Z,5.93
2018-04-19T21:08:29.790Z,5.63
2018-04-19T21:10:57.357Z,6.40
2018-04-19T21:13:25.033Z,5.27
2018-04-19T21:15:52.616Z,6.47
2018-04-19T21:18:20.194Z,7.30
2018-04-19T21:20:47.931Z,7.20
2018-04-19T21:23:15.506Z,7.63
2018-04-19T21:25:43.092Z,8.30
2018-04-19T21:28:11.622Z,8.63
2018-04-19T21:30:39.239Z,7.90
2018-04-19T21:33:07.591Z,8.73
2018-04-19T21:35:35.212Z,7.70
2018-04-19T21:38:02.776Z,8.30
2018-04-19T21:40:30.377Z,7.87
2018-04-19T21:42:57.962Z,7.90
2018-04-19T21:45:25.525Z,8.90
2018-04-19T21:47:53.157Z,8.73
2018-04-19T21:50:21.493Z,8.57
2018-04-19T21:52:49.294Z,8.80
2018-04-19T21:55:16.881Z,8.87
2018-04-19T21:57:44.461Z,9.73
2018-04-19T22:00:12.226Z,9.60
2018-04-19T22:02:39.830Z,9.47
2018-04-19T22:05:07.418Z,9.07
2018-04-19T22:07:35.123Z,9.37
2018-04-19T22:10:02.718Z,9.60
2018-04-19T22:12:31.085Z,9.87
2018-04-19T22:14:58.656Z,9.87
2018-04-19T22:17:27.000Z,8.40
2018-04-19T22:19:54.560Z,9.70
2018-04-19T22:22:22.129Z,9.60
2018-04-19T22:24:49.728Z,9.33
2018-04-19T22:27:17.333Z,8.90
2018-04-19T22:29:45.089Z,8.20
2018-04-19T22:32:12.642Z,8.77
2018-04-19T22:34:40.442Z,8.13
2018-04-19T22:37:08.174Z,7.60
2018-04-19T22:39:35.758Z,7.70
2018-04-19T22:42:03.352Z,7.30
2018-04-19T22:44:30.913Z,7.60
2018-04-19T22:46:58.668Z,8.10
2018-04-19T22:49:26.212Z,8.00
2018-04-19T22:51:54.533Z,6.73
2018-04-19T22:54:22.342Z,6.67
2018-04-19T22:56:49.921Z,6.37
2018-04-19T22:59:18.241Z,6.57
2018-04-19T23:01:45.945Z,5.73
2018-04-19T23:04:14.312Z,6.90
2018-04-19T23:06:41.929Z,6.60
2018-04-19T23:09:09.509Z,6.50
2018-04-19T23:11:37.108Z,7.03
2018-04-19T23:14:05.457Z,7.70
2018-04-19T23:16:33.950Z,7.60
2018-04-19T23:19:02.312Z,6.80
2018-04-19T23:21:29.971Z,7.77
2018-04-19T23:23:57.566Z,7.60
2018-04-19T23:26:25.894Z,6.73
2018-04-19T23:28:53.578Z,7.57
2018-04-19T23:31:21.134Z,8.70
2018-04-19T23:33:48.777Z,8.70
2018-04-19T23:36:16.461Z,9.60
2018-04-19T23:38:44.101Z,8.87
2018-04-19T23:41:11.681Z,9.07
2018-04-19T23:43:40.124Z,9.80
2018-04-19T23:46:07.722Z,10.87
2018-04-19T23:48:36.045Z,10.10
2018-04-19T23:51:03.805Z,9.27
2018-04-19T23:53:31.373Z,10.10
2018-04-19T23:55:58.961Z,9.80
2018-04-19T23:58:26.519Z,11.20
